Latest Weather Observations for Point Perpendicular

IDN60801

Issued at 12:33 am EDT Monday 26 October 2020 (issued every 10 minutes, with the page automatically refreshed every 10 minutes)

About weather observations | Map of weather stations | Latest weather observations for NSW | Other Formats
Station Details ID: 068151 Name: POINT PERPENDICULAR AWS Lat: -35.09 Lon: 150.80 Height: 85.0 m
Data from the previous 72 hours. | See also: Recent months at Point Perpendicular
Date/Time
EDT
Temp
°C
App
Temp
°C
Dew
Point
°C
Rel
Hum
%
Delta-T
°C
Wind Press
QNH
hPa
Press
MSL
hPa
Rain since
9am
mm
Dir  Spd
km/h
Gust
km/h
Spd
kts
Gust
kts
26/12:30am 13.4 6.5 11.5 88 1.0 SSE 39 59 21 32 1017.3 1017.1 25.4
26/12:00am 13.3 7.1 11.5 89 1.0 SSE 35 59 19 32 1018.1 1018.0 24.2
 
Date/Time
EDT
Temp
°C
App
Temp
°C
Dew
Point
°C
Rel
Hum
%
Delta-T
°C
Wind Press
QNH
hPa
Press
MSL
hPa
Rain since
9am
mm
Dir  Spd
km/h
Gust
km/h
Spd
kts
Gust
kts
25/11:30pm 14.2 9.9 13.1 93 0.6 SSE 28 50 15 27 1018.9 1018.8 23.6
25/11:00pm 13.8 9.3 12.7 93 0.6 SSE 28 52 15 28 1018.3 1018.2 21.0
25/10:59pm 13.9 9.5 12.8 93 0.6 SSE 28 52 15 28 1018.2 1018.1 21.0
25/10:30pm 14.1 10.5 13.1 94 0.6 SSE 24 35 13 19 1018.7 1018.6 17.0
25/10:00pm 14.1 10.5 13.0 93 0.6 SSE 24 35 13 19 1019.2 1019.1 13.8
25/09:30pm 13.6 10.0 11.8 89 1.0 SSE 22 33 12 18 1018.5 1018.4 12.2
25/09:00pm 14.3 10.6 12.7 90 0.9 SSE 24 35 13 19 1018.3 1018.2 11.2
25/08:30pm 13.7 9.6 11.4 86 1.2 S 24 35 13 19 1018.1 1018.0 10.6
25/08:00pm 13.7 9.4 11.9 89 1.0 SSE 26 37 14 20 1017.5 1017.4 9.8
25/07:30pm 14.0 10.3 11.5 85 1.3 SSE 22 33 12 18 1017.6 1017.5 8.8
25/07:00pm 14.2 10.3 10.8 80 1.8 S 22 33 12 18 1017.2 1017.0 8.4
25/06:30pm 14.5 9.4 9.3 71 2.7 SSE 26 37 14 20 1016.7 1016.5 7.8
25/06:00pm 14.3 8.9 9.5 73 2.5 SSE 28 43 15 23 1015.9 1015.7 7.8
25/05:30pm 14.3 10.7 13.0 92 0.7 S 24 39 13 21 1015.6 1015.4 7.0
25/05:00pm 13.6 9.0 12.2 91 0.8 S 28 43 15 23 1015.2 1015.0 5.6
25/04:31pm 13.4 8.5 12.5 94 0.5 S 30 48 16 26 1014.4 1014.2 4.8
25/04:30pm 13.5 8.3 12.7 95 0.4 S 32 48 17 26 1014.2 1014.0 4.8
25/04:00pm 13.0 7.5 12.5 97 0.3 SSW 33 52 18 28 1013.9 1013.7 3.8
25/03:35pm 12.7 7.7 12.2 97 0.3 SSW 30 48 16 26 1014.1 1013.9 3.4
25/03:30pm 12.3 6.6 11.8 97 0.3 SSW 33 48 18 26 1014.4 1014.2 3.4
25/03:04pm 12.5 6.5 12.0 97 0.3 SSW 35 54 19 29 1014.1 1013.9 3.0
25/03:00pm 12.3 6.6 11.8 97 0.3 SSW 33 50 18 27 1014.1 1013.9 3.0
25/02:47pm 12.5 6.9 12.0 97 0.3 SSW 33 54 18 29 1014.1 1013.9 2.8
25/02:30pm 11.5 6.5 10.9 96 0.3 SW 28 43 15 23 1014.8 1014.6 2.4
25/02:00pm 11.5 6.8 10.7 95 0.4 SW 26 43 14 23 1015.4 1015.2 1.2
25/01:33pm 11.5 6.3 10.4 93 0.6 SW 28 46 15 25 1015.6 1015.4 0.6
25/01:30pm 11.7 7.0 10.6 93 0.6 SW 26 46 14 25 1015.4 1015.2 0.6
25/01:01pm 11.4 5.4 10.0 91 0.7 SSW 32 50 17 27 1014.9 1014.7 0.6
25/01:00pm 11.8 5.7 10.5 92 0.7 SSW 33 50 18 27 1014.9 1014.7 0.6
25/12:30pm 11.0 5.7 9.8 92 0.6 SW 28 46 15 25 1015.4 1015.2 0.6
25/12:06pm 11.2 5.6 10.1 93 0.6 SW 30 52 16 28 1014.8 1014.6 0.6
25/12:00pm 11.0 5.3 9.8 92 0.6 SW 30 46 16 25 1014.9 1014.7 0.4
25/11:36am 11.7 5.8 10.3 91 0.7 SSW 32 50 17 27 1015.0 1014.8 0.2
25/11:30am 11.6 5.6 10.0 90 0.8 SSW 32 48 17 26 1014.8 1014.6 0.2
25/11:00am 11.5 5.4 9.9 90 0.8 SSW 32 50 17 27 1014.7 1014.5 0.0
25/10:30am 11.9 5.5 9.3 84 1.3 SSW 33 54 18 29 1014.6 1014.4 0.0
25/10:19am 12.5 5.7 9.3 81 1.6 SSW 35 54 19 29 1014.5 1014.3 0.0
25/10:00am 12.4 5.8 8.5 77 1.9 SSW 33 50 18 27 1014.3 1014.1 0.0
25/09:30am 12.9 6.9 8.8 76 2.1 SSW 30 48 16 26 1013.6 1013.4 0.0
25/09:01am 12.9 6.2 8.0 72 2.4 SSW 33 52 18 28 1013.8 1013.6 0.0
25/09:00am 13.1 6.2 8.8 75 2.2 SSW 35 52 19 28 1013.7 1013.5 8.2
25/08:30am 13.1 6.5 8.4 73 2.3 SSW 33 52 18 28 1013.0 1012.8 8.2
25/08:00am 13.2 6.6 8.5 73 2.4 SSW 33 56 18 30 1012.4 1012.2 8.2
25/07:49am 13.1 5.7 8.4 73 2.3 SSW 37 56 20 30 1012.2 1012.0 8.2
25/07:30am 13.3 6.4 8.8 74 2.3 SSW 35 50 19 27 1011.6 1011.4 8.2
25/07:00am 13.0 5.5 8.1 72 2.4 SSW 37 59 20 32 1011.4 1011.2 8.2
25/06:30am 13.6 7.1 8.0 69 2.8 S 32 50 17 27 1010.9 1010.8 8.2
25/06:00am 13.7 6.6 7.9 68 2.9 SSW 35 54 19 29 1009.9 1009.8 8.2
25/05:35am 13.8 8.1 9.8 77 2.1 SSW 30 48 16 26 1010.0 1009.9 8.2
25/05:30am 13.3 6.6 8.0 70 2.6 SSW 33 48 18 26 1009.8 1009.7 8.2
25/05:00am 12.9 7.0 10.3 84 1.4 SSW 32 50 17 27 1009.3 1009.2 8.2
25/04:30am 12.2 6.1 10.6 90 0.8 SSW 33 54 18 29 1008.9 1008.8 8.2
25/04:00am 12.3 6.9 10.9 91 0.7 SSW 30 52 16 28 1008.6 1008.5 8.2
25/03:38am 12.4 6.5 11.0 91 0.7 SSW 33 52 18 28 1008.7 1008.6 8.0
25/03:30am 12.5 6.6 11.1 91 0.7 SSW 33 50 18 27 1008.4 1008.3 8.0
25/03:02am 12.8 7.2 11.4 91 0.7 SSW 32 50 17 27 1008.5 1008.4 7.8
25/03:00am 12.8 7.0 11.4 91 0.7 SSW 33 50 18 27 1008.5 1008.4 7.8
25/02:30am 12.6 7.4 11.7 94 0.5 SSW 30 48 16 26 1007.9 1007.8 7.6
25/02:25am 13.0 8.3 12.1 94 0.5 SSW 28 48 15 26 1008.1 1008.0 7.6
25/02:00am 12.8 8.0 11.7 93 0.6 SSW 28 41 15 22 1007.8 1007.7 7.4
25/01:30am 12.8 7.3 11.7 93 0.6 SSW 32 52 17 28 1007.4 1007.3 7.4
25/01:12am 13.0 7.4 11.6 91 0.7 SSW 32 50 17 27 1007.2 1007.0 7.4
25/01:00am 13.0 7.3 11.2 89 1.0 SSW 32 46 17 25 1007.1 1006.9 7.4
25/12:30am 13.6 7.9 11.8 89 1.0 SSW 33 54 18 29 1007.2 1007.0 7.4
25/12:00am 14.3 8.6 11.8 85 1.4 SSW 33 54 18 29 1007.1 1006.9 7.4
 
Date/Time
EDT
Temp
°C
App
Temp
°C
Dew
Point
°C
Rel
Hum
%
Delta-T
°C
Wind Press
QNH
hPa
Press
MSL
hPa
Rain since
9am
mm
Dir  Spd
km/h
Gust
km/h
Spd
kts
Gust
kts
24/11:30pm 13.8 6.4 11.3 85 1.3 SSW 41 59 22 32 1006.0 1005.8 7.4
24/11:02pm 13.7 8.2 11.8 88 1.0 SSW 32 50 17 27 1006.3 1006.1 7.2
24/11:00pm 13.7 8.0 11.8 88 1.0 SSW 33 50 18 27 1006.4 1006.2 7.0
24/10:30pm 13.7 7.0 12.4 92 0.7 SSW 39 61 21 33 1006.3 1006.1 6.4
24/10:00pm 13.9 7.8 13.0 94 0.5 SSW 37 57 20 31 1006.0 1005.8 6.2
24/09:31pm 15.0 10.6 14.2 95 0.5 SSW 30 48 16 26 1005.7 1005.5 5.4
24/09:30pm 15.1 10.8 14.3 95 0.5 S 30 44 16 24 1005.5 1005.3 5.2
24/09:00pm 15.7 10.2 14.7 94 0.6 S 37 61 20 33 1004.8 1004.6 4.8
24/08:48pm 16.2 14.1 15.2 94 0.6 SW 20 54 11 29 1003.6 1003.4 4.8
24/08:47pm 16.2 14.7 15.2 94 0.6 WSW 17 46 9 25 1003.1 1002.9 4.8
24/08:30pm 18.5 19.6 18.0 97 0.3 NNW 9 13 5 7 1004.0 1003.8 4.8
24/08:00pm 18.6 18.6 18.1 97 0.3 N 15 24 8 13 1003.1 1002.9 4.8
24/07:30pm 18.5 17.7 18.0 97 0.3 N 19 26 10 14 1002.6 1002.4 4.8
24/07:00pm 18.8 17.9 18.3 97 0.3 N 20 30 11 16 1002.3 1002.1 4.8
24/06:30pm 18.8 17.9 18.1 96 0.4 NNE 20 32 11 17 1002.3 1002.1 4.8
24/06:00pm 18.6 17.7 17.8 95 0.5 NNE 19 28 10 15 1002.2 1002.0 4.8
24/05:30pm 18.9 18.1 18.1 95 0.5 NE 19 26 10 14 1001.9 1001.7 4.8
24/05:00pm 18.9 18.7 17.7 93 0.7 N 15 22 8 12 1002.7 1002.5 3.0
24/04:30pm 19.2 18.4 17.9 92 0.8 NNE 19 24 10 13 1002.1 1001.9 2.8
24/04:00pm 19.8 19.2 17.6 87 1.4 NNE 17 22 9 12 1001.8 1001.6 2.8
24/03:30pm 20.4 20.7 17.8 85 1.6 N 13 20 7 11 1002.0 1001.8 2.8
24/03:00pm 19.8 19.3 17.9 89 1.2 N 17 20 9 11 1002.1 1001.9 2.8
24/02:30pm 19.7 19.5 17.7 88 1.2 N 15 22 8 12 1002.3 1002.1 2.6
24/02:00pm 19.8 20.1 17.8 88 1.2 N 13 22 7 12 1002.9 1002.7 2.4
24/01:30pm 19.0 19.3 17.1 89 1.2 NW 11 17 6 9 1003.0 1002.8 2.2
24/01:00pm 18.6 15.3 16.0 85 1.6 NW 28 48 15 26 1003.5 1003.3 2.0
24/12:57pm 18.8 15.9 16.0 84 1.7 NNW 26 48 14 26 1003.8 1003.6 1.4
24/12:56pm 19.2 16.5 16.6 85 1.6 NNW 26 48 14 26 1003.9 1003.7 1.2
24/12:30pm 22.7 21.2 17.8 74 3.1 N 22 30 12 16 1002.8 1002.6 0.0
24/12:00pm 23.5 21.5 18.2 72 3.3 N 26 33 14 18 1002.8 1002.6 0.0
24/11:30am 21.6 19.8 17.8 79 2.4 NNE 24 32 13 17 1002.8 1002.6 0.0
24/11:00am 22.4 20.2 18.8 80 2.3 NNE 28 41 15 22 1003.2 1003.0 0.0
24/10:30am 21.6 18.6 17.8 79 2.4 N 30 43 16 23 1003.5 1003.3 0.0
24/10:00am 22.2 19.8 18.2 78 2.5 NNE 28 41 15 22 1003.5 1003.3 0.0
24/09:30am 20.4 17.8 17.8 85 1.6 NNE 28 37 15 20 1003.7 1003.5 0.0
24/09:00am 19.6 17.3 17.7 89 1.2 N 26 37 14 20 1004.0 1003.8 3.6
24/08:30am 19.5 17.2 17.5 88 1.2 N 26 37 14 20 1004.5 1004.3 3.6
24/08:00am 18.8 16.1 17.6 93 0.7 N 28 41 15 22 1004.3 1004.1 3.6
24/07:30am 18.8 16.5 17.5 92 0.8 N 26 37 14 20 1004.3 1004.1 3.6
24/07:00am 18.7 17.0 17.2 91 0.9 NNE 22 35 12 19 1004.0 1003.8 3.6
24/06:30am 18.2 17.1 17.2 94 0.6 NNE 19 28 10 15 1003.6 1003.4 3.6
24/06:00am 17.9 16.8 17.3 96 0.4 NNE 19 26 10 14 1003.8 1003.6 3.6
24/05:30am 17.8 16.5 16.8 94 0.6 NNE 19 28 10 15 1004.4 1004.2 3.6
24/05:00am 18.0 16.7 16.7 92 0.8 NNE 19 24 10 13 1004.7 1004.5 3.6
24/04:30am 18.1 17.7 16.1 88 1.2 NNE 13 20 7 11 1004.5 1004.3 3.6
24/04:00am 18.2 18.5 17.0 93 0.7 N 11 15 6 8 1005.6 1005.4 2.6
24/03:30am 18.1 17.6 17.0 93 0.7 NNW 15 20 8 11 1006.3 1006.1 1.6
24/03:00am 18.2 16.9 17.2 94 0.6 N 20 30 11 16 1006.7 1006.5 0.2
24/02:30am 18.5 16.8 17.2 92 0.8 N 22 39 12 21 1006.2 1006.0 0.0
24/02:00am 18.7 16.7 17.4 92 0.8 NNE 24 35 13 19 1006.4 1006.2 0.0
24/01:30am 18.9 15.4 17.4 91 0.9 NNE 32 46 17 25 1006.4 1006.2 0.0
24/01:02am 19.0 15.5 17.5 91 0.9 NNE 32 50 17 27 1006.7 1006.5 0.0
24/01:00am 19.0 15.3 17.5 91 0.9 NNE 33 50 18 27 1006.7 1006.5 0.0
24/12:44am 19.1 14.6 17.4 90 1.0 NNE 37 56 20 30 1007.1 1006.9 0.0
24/12:30am 19.1 15.6 17.4 90 1.0 NNE 32 44 17 24 1007.1 1006.9 0.0
24/12:19am 19.1 15.5 17.6 91 0.9 NNE 33 52 18 28 1007.2 1007.0 0.0
24/12:00am 19.1 15.5 17.6 91 0.9 NNE 33 46 18 25 1007.5 1007.4 0.0
 
Date/Time
EDT
Temp
°C
App
Temp
°C
Dew
Point
°C
Rel
Hum
%
Delta-T
°C
Wind Press
QNH
hPa
Press
MSL
hPa
Rain since
9am
mm
Dir  Spd
km/h
Gust
km/h
Spd
kts
Gust
kts
23/11:31pm 19.1 16.0 17.6 91 0.9 NNE 30 48 16 26 1007.8 1007.7 0.0
23/11:30pm 19.1 15.7 17.6 91 0.9 NNE 32 48 17 26 1007.8 1007.7 0.0
23/11:19pm 19.1 16.4 17.6 91 0.9 NNE 28 46 15 25 1007.7 1007.6 0.0
23/11:00pm 19.0 15.9 17.5 91 0.9 N 30 41 16 22 1008.0 1007.9 0.0
23/10:30pm 18.7 15.6 17.5 93 0.7 NNE 30 43 16 23 1008.2 1008.1 0.0
23/10:00pm 18.5 15.0 17.5 94 0.6 NNE 32 46 17 25 1008.4 1008.3 0.0
23/09:30pm 18.7 15.7 17.7 94 0.6 NNE 30 41 16 22 1008.4 1008.3 0.0
23/09:00pm 18.8 15.4 17.6 93 0.7 NNE 32 46 17 25 1008.8 1008.7 0.0
23/08:30pm 18.9 15.5 17.6 92 0.8 NNE 32 50 17 27 1008.8 1008.7 0.0
23/08:29pm 19.0 15.6 17.7 92 0.8 NNE 32 50 17 27 1008.8 1008.7 0.0
23/08:00pm 19.1 15.7 17.6 91 0.9 NNE 32 44 17 24 1008.5 1008.4 0.0
23/07:30pm 19.2 15.5 17.5 90 1.0 NNE 33 48 18 26 1008.6 1008.5 0.0
23/07:14pm 19.3 15.6 17.4 89 1.2 NNE 33 52 18 28 1008.6 1008.5 0.0
23/07:00pm 19.3 15.6 17.4 89 1.2 NNE 33 48 18 26 1008.4 1008.3 0.0
23/06:30pm 19.6 16.0 17.2 86 1.5 NNE 32 44 17 24 1008.2 1008.1 0.0
23/06:11pm 19.9 15.7 17.1 84 1.7 NNE 35 54 19 29 1008.1 1008.0 0.0
23/06:00pm 19.9 15.6 16.9 83 1.8 NNE 35 48 19 26 1008.2 1008.1 0.0
23/05:30pm 20.4 16.8 17.2 82 2.0 NNE 32 43 17 23 1008.1 1008.0 0.0
23/05:00pm 20.7 17.0 16.9 79 2.3 NNE 32 44 17 24 1008.3 1008.2 0.0
23/04:30pm 21.6 17.2 16.6 73 3.0 NNE 35 50 19 27 1008.7 1008.6 0.0
23/04:00pm 21.2 17.2 16.6 75 2.8 NNE 33 52 18 28 1008.8 1008.7 0.0
23/03:43pm 21.3 18.3 16.9 76 2.7 NNE 28 50 15 27 1009.0 1008.9 0.0
23/03:30pm 21.0 18.1 17.0 78 2.4 NNE 28 41 15 22 1009.1 1009.0 0.0
23/03:00pm 22.5 18.6 17.0 71 3.4 NNE 33 44 18 24 1009.4 1009.3 0.0
23/02:30pm 22.4 18.5 16.9 71 3.4 NNE 33 46 18 25 1009.8 1009.7 0.0
23/02:00pm 22.0 18.0 16.3 70 3.5 NNE 32 44 17 24 1010.6 1010.5 0.0
23/01:30pm 23.4 19.2 17.2 68 3.8 NNE 35 46 19 25 1011.2 1011.0 0.0
23/01:00pm 22.6 17.6 16.2 67 3.9 NNE 37 48 20 26 1011.6 1011.4 0.0
23/12:30pm 22.5 18.4 16.5 69 3.7 NNE 33 46 18 25 1011.8 1011.6 0.0
23/12:00pm 22.2 17.7 16.5 70 3.5 NNE 35 44 19 24 1012.0 1011.8 0.0
23/11:30am 22.0 18.1 16.9 73 3.1 NNE 33 44 18 24 1012.3 1012.1 0.0
23/11:00am 21.9 18.1 16.8 73 3.1 NE 32 44 17 24 1012.6 1012.4 0.0
23/10:30am 21.4 17.5 16.4 73 3.0 NNE 32 41 17 22 1013.0 1012.8 0.0
23/10:00am 21.3 18.2 16.5 74 2.9 NNE 28 39 15 21 1013.3 1013.1 0.0
23/09:30am 21.5 19.5 17.3 77 2.6 NNE 24 32 13 17 1013.7 1013.5 0.0
23/09:00am 20.3 18.0 16.7 80 2.2 NNE 24 32 13 17 1013.8 1013.6 0.0
23/08:30am 19.3 17.5 16.9 86 1.5 NNE 22 30 12 16 1013.9 1013.7 0.0
23/08:00am 17.9 17.7 16.6 92 0.8 N 13 20 7 11 1014.1 1013.9 0.0
23/07:30am 16.6 16.8 15.8 95 0.5 N 9 13 5 7 1014.2 1014.0 0.0
23/07:00am 15.7 16.2 15.1 96 0.3 N 6 9 3 5 1014.0 1013.8 0.0
23/06:30am 15.8 15.4 15.3 97 0.3 NNE 11 13 6 7 1013.7 1013.5 0.0
23/06:00am 15.4 15.7 14.9 97 0.3 NW 7 7 4 4 1013.8 1013.6 0.0
23/05:30am 15.3 14.7 14.7 96 0.3 N 11 13 6 7 1013.4 1013.2 0.0
23/05:00am 15.7 15.3 15.1 96 0.3 N 11 15 6 8 1013.1 1012.9 0.0
23/04:30am 15.8 15.0 15.2 96 0.3 NNE 13 20 7 11 1012.8 1012.6 0.0
23/04:00am 16.0 16.0 15.2 95 0.5 N 9 11 5 6 1013.2 1013.0 0.0
23/03:30am 16.4 16.2 15.6 95 0.5 N 11 17 6 9 1013.0 1012.8 0.0
23/03:00am 16.9 16.2 16.3 96 0.4 NNE 15 20 8 11 1013.2 1013.0 0.0
23/02:30am 17.2 16.5 16.4 95 0.5 NNE 15 20 8 11 1013.6 1013.4 0.0
23/02:00am 17.4 16.3 16.4 94 0.6 NNE 17 24 9 13 1014.0 1013.8 0.0
23/01:30am 17.5 16.1 16.5 94 0.6 NNE 19 26 10 14 1014.4 1014.2 0.0
23/01:00am 17.6 16.2 16.6 94 0.6 NNE 19 28 10 15 1014.5 1014.3 0.0

Other formats

Comma delimited format used in spreadsheet applications
http://www.bom.gov.au/fwo/IDN60801/IDN60801.95940.axf

JavaScript Object Notation format (JSON) in row-major order
http://www.bom.gov.au/fwo/IDN60801/IDN60801.95940.json

Data quality

Most of these data are generated automatically and are frequently updated. Quality checks on data are not normally performed. It is possible for incorrect values to appear. Refer to information at About Latest Weather Observations and please check the disclaimer before using these data.